Time;durP1;ratioP1;P1;durP2;ratioP2;P2;SDS_P1;SDS_P2;PMS_P1;PMS_P2;Temp;Humidity;BMP_temperature;BMP_pressure;BME280_temperature;BME280_humidity;BME280_pressure;Samples;Min_cycle;Max_cycle;Signal;HPM_P1;HPM_P2
2023/06/21 00:02:43;;;;;;;18.23;16.60;;;;;;;17.85;99.69;97539.94;6239943;28;20227;-44
2023/06/21 00:05:46;;;;;;;19.40;17.60;;;;;;;17.87;100.00;97537.75;6237807;28;20239;-42
2023/06/21 00:08:48;;;;;;;19.87;17.93;;;;;;;17.86;100.00;97541.53;6241468;28;20314;-43
2023/06/21 00:11:50;;;;;;;18.90;17.10;;;;;;;17.89;100.00;97538.28;6235969;28;20348;-43
2023/06/21 00:14:53;;;;;;;19.70;17.70;;;;;;;17.84;100.00;97532.97;6229982;28;20300;-43
2023/06/21 00:17:55;;;;;;;19.70;17.80;;;;;;;17.81;100.00;97532.72;6240002;28;20239;-43
2023/06/21 00:20:59;;;;;;;19.97;17.80;;;;;;;17.27;100.00;97449.41;6244031;28;20714;-43
2023/06/21 00:24:02;;;;;;;18.67;16.73;;;;;;;17.78;100.00;97542.19;6242679;28;20547;-43
2023/06/21 00:27:05;;;;;;;19.73;17.83;;;;;;;17.81;100.00;97548.91;6240617;28;20203;-44
2023/06/21 00:30:08;;;;;;;20.23;18.10;;;;;;;17.72;100.00;97530.66;6241582;28;20219;-44
2023/06/21 00:33:10;;;;;;;20.10;18.10;;;;;;;17.61;100.00;97523.81;6241288;28;20207;-44
2023/06/21 00:36:14;;;;;;;19.60;17.70;;;;;;;17.51;100.00;97516.69;6233593;28;20214;-45
2023/06/21 00:39:19;;;;;;;20.20;18.27;;;;;;;17.67;100.00;97548.78;6241176;28;20270;-44
2023/06/21 00:42:23;;;;;;;20.27;18.33;;;;;;;17.76;100.00;97566.75;6243294;28;20235;-46
2023/06/21 00:45:25;;;;;;;20.17;18.17;;;;;;;17.76;100.00;97566.75;6240602;28;20227;-43
2023/06/21 00:48:28;;;;;;;20.77;18.60;;;;;;;17.70;100.00;97559.00;6240174;28;20232;-43
2023/06/21 00:51:32;;;;;;;19.03;17.23;;;;;;;17.83;100.00;97584.44;6238191;28;20227;-46
2023/06/21 00:54:36;;;;;;;19.13;17.40;;;;;;;17.84;100.00;97591.44;6221941;28;20235;-43
2023/06/21 00:57:44;;;;;;;20.33;18.20;;;;;;;17.86;100.00;97597.34;6222212;28;20232;-45
2023/06/21 01:00:49;;;;;;;20.03;18.03;;;;;;;17.75;100.00;97581.31;6238369;28;20369;-43
2023/06/21 01:03:54;;;;;;;20.73;18.73;;;;;;;17.87;100.00;97588.94;6241998;28;20234;-42
2023/06/21 01:07:05;;;;;;;20.33;18.37;;;;;;;17.89;100.00;97584.09;6240085;28;20290;-45
2023/06/21 01:10:10;;;;;;;20.73;18.63;;;;;;;17.88;100.00;97576.28;6239218;28;20238;-43
2023/06/21 01:13:35;;;;;;;20.77;18.67;;;;;;;17.85;100.00;97572.28;6238141;28;20250;-43
2023/06/21 01:16:43;;;;;;;20.13;18.00;;;;;;;17.86;100.00;97571.19;6201726;28;20611;-49
2023/06/21 01:19:54;;;;;;;20.40;18.30;;;;;;;17.82;100.00;97591.72;6240441;28;20231;-43
2023/06/21 01:23:31;;;;;;;19.67;17.77;;;;;;;17.81;100.00;97614.38;6206098;28;20273;-43
2023/06/21 01:27:12;;;;;;;21.57;19.30;;;;;;;17.92;100.00;97658.16;6234379;28;20234;-43
2023/06/21 01:30:17;;;;;;;22.47;20.07;;;;;;;17.99;100.00;97677.47;6219233;28;20236;-43
2023/06/21 01:33:20;;;;;;;23.87;20.60;;;;;;;18.03;100.00;97683.91;6222554;28;20644;-42
2023/06/21 01:36:22;;;;;;;22.87;20.53;;;;;;;18.11;100.00;97695.91;6242191;28;20234;-43
2023/06/21 01:39:31;;;;;;;22.63;20.53;;;;;;;18.15;100.00;97678.06;6219022;28;20234;-43
2023/06/21 01:42:33;;;;;;;22.50;20.40;;;;;;;18.19;100.00;97701.47;6235975;28;20227;-43
2023/06/21 01:45:36;;;;;;;20.17;18.37;;;;;;;18.21;100.00;97693.88;6240219;28;20237;-44
2023/06/21 01:48:40;;;;;;;20.33;18.53;;;;;;;18.26;100.00;97693.00;6208428;28;20226;-43
2023/06/21 01:51:44;;;;;;;21.00;19.10;;;;;;;18.26;100.00;97707.28;6238869;28;20369;-42
2023/06/21 01:54:47;;;;;;;21.80;19.70;;;;;;;18.28;100.00;97694.34;6232156;28;20233;-43
2023/06/21 01:57:51;;;;;;;22.07;20.00;;;;;;;18.28;100.00;97696.25;6239734;28;20235;-44
2023/06/21 02:00:56;;;;;;;21.93;19.67;;;;;;;18.28;100.00;97682.75;6226681;28;20238;-44
2023/06/21 02:04:00;;;;;;;20.80;18.80;;;;;;;18.29;100.00;97685.16;6239151;28;20226;-43
2023/06/21 02:07:04;;;;;;;21.73;19.60;;;;;;;18.44;100.00;97675.22;6237863;28;20739;-44
2023/06/21 02:10:09;;;;;;;21.67;19.57;;;;;;;18.43;100.00;97676.34;6233968;28;20231;-43
2023/06/21 02:13:13;;;;;;;21.27;19.27;;;;;;;18.46;100.00;97675.72;6238445;28;20710;-42
2023/06/21 02:16:15;;;;;;;21.77;19.77;;;;;;;18.53;100.00;97662.69;6239129;28;20230;-43
2023/06/21 02:19:18;;;;;;;23.33;21.13;;;;;;;18.63;100.00;97675.22;6206828;28;20727;-43
2023/06/21 02:22:20;;;;;;;22.47;20.27;;;;;;;18.66;100.00;97647.63;6224898;28;20230;-44
2023/06/21 02:25:22;;;;;;;22.00;19.97;;;;;;;18.75;100.00;97662.09;6238937;28;20228;-43
2023/06/21 02:28:25;;;;;;;20.83;18.87;;;;;;;18.85;100.00;97664.63;6239921;28;20235;-42
2023/06/21 02:31:27;;;;;;;21.17;19.27;;;;;;;18.93;100.00;97663.94;6243480;28;20227;-43
2023/06/21 02:34:31;;;;;;;19.93;18.00;;;;;;;18.98;100.00;97671.16;6218563;28;20238;-44
2023/06/21 02:37:38;;;;;;;18.93;17.27;;;;;;;19.01;100.00;97678.66;6245197;28;20796;-43
2023/06/21 02:40:40;;;;;;;18.60;16.90;;;;;;;18.91;100.00;97657.22;6241592;28;20346;-43
2023/06/21 02:43:42;;;;;;;18.37;16.53;;;;;;;19.04;100.00;97680.78;6223052;28;20629;-43
2023/06/21 02:46:44;;;;;;;19.43;17.63;;;;;;;19.03;100.00;97674.56;6241687;28;20296;-43
2023/06/21 02:49:47;;;;;;;18.70;17.10;;;;;;;19.04;100.00;97686.16;6232496;28;20283;-43
2023/06/21 02:52:49;;;;;;;19.00;17.20;;;;;;;18.99;100.00;97681.66;6235667;28;20223;-42
2023/06/21 02:55:51;;;;;;;19.97;18.00;;;;;;;19.07;100.00;97681.00;6243139;28;20234;-44
2023/06/21 02:58:54;;;;;;;19.93;17.90;;;;;;;19.09;100.00;97669.88;6241037;28;20215;-43
2023/06/21 03:01:56;;;;;;;19.23;17.33;;;;;;;19.12;100.00;97679.31;6242371;28;20243;-43
2023/06/21 03:05:02;;;;;;;18.23;16.43;;;;;;;19.13;100.00;97676.28;6241003;28;20559;-43
2023/06/21 03:08:07;;;;;;;18.17;16.57;;;;;;;18.48;99.83;97577.25;6242018;28;20231;-44
2023/06/21 03:11:11;;;;;;;18.17;16.37;;;;;;;19.06;100.00;97668.59;6243028;28;20234;-44
2023/06/21 03:14:13;;;;;;;18.10;16.50;;;;;;;18.80;100.00;97619.63;6224180;28;20603;-43
2023/06/21 03:17:16;;;;;;;18.30;16.60;;;;;;;19.03;100.00;97639.47;6240965;28;20232;-44
2023/06/21 03:20:18;;;;;;;16.77;15.27;;;;;;;19.04;100.00;97643.78;6224259;28;20776;-43
2023/06/21 03:23:22;;;;;;;16.63;15.23;;;;;;;19.04;100.00;97640.28;6225306;28;20231;-45
2023/06/21 03:26:25;;;;;;;16.50;14.80;;;;;;;19.03;100.00;97639.47;6241174;28;20726;-44
2023/06/21 03:29:28;;;;;;;17.57;16.07;;;;;;;19.04;100.00;97645.66;6221180;28;20592;-44
2023/06/21 03:32:30;;;;;;;17.23;15.73;;;;;;;19.04;100.00;97642.97;6240503;28;20231;-43
2023/06/21 03:35:33;;;;;;;16.73;15.27;;;;;;;19.04;100.00;97640.28;6239721;28;20325;-43
2023/06/21 03:38:35;;;;;;;15.43;14.03;;;;;;;18.94;100.00;97622.34;6240757;28;20238;-46
2023/06/21 03:41:38;;;;;;;17.50;15.90;;;;;;;19.06;100.00;97629.97;6242540;28;20220;-44
2023/06/21 03:44:40;;;;;;;16.97;15.43;;;;;;;19.06;100.00;97627.25;6220318;28;20233;-44
2023/06/21 03:47:43;;;;;;;17.93;16.13;;;;;;;19.08;100.00;97630.47;6231784;28;20227;-43
2023/06/21 03:50:46;;;;;;;17.87;16.27;;;;;;;19.07;100.00;97618.88;6209628;28;20627;-45
2023/06/21 03:53:48;;;;;;;17.87;16.27;;;;;;;19.09;100.00;97610.47;6221812;28;20614;-45
2023/06/21 03:56:51;;;;;;;19.90;17.90;;;;;;;19.09;100.00;97613.19;6242478;28;20235;-44
2023/06/21 03:59:53;;;;;;;19.57;17.77;;;;;;;19.13;100.00;97640.41;6223399;28;20239;-43
2023/06/21 04:02:57;;;;;;;19.53;17.73;;;;;;;19.16;100.00;97658.69;6208182;28;20779;-44
2023/06/21 04:05:59;;;;;;;18.13;16.53;;;;;;;19.19;100.00;97658.91;6223292;28;20289;-44
2023/06/21 04:09:01;;;;;;;18.53;16.83;;;;;;;19.20;100.00;97665.91;6240323;28;20689;-45
2023/06/21 04:12:04;;;;;;;18.23;16.53;;;;;;;19.28;99.72;97678.72;6240877;28;20227;-43
2023/06/21 04:15:08;;;;;;;17.53;15.80;;;;;;;19.30;99.84;97679.22;6222581;28;20666;-44
2023/06/21 04:18:12;;;;;;;19.20;17.40;;;;;;;19.34;100.00;97682.13;6238990;28;20283;-43
2023/06/21 04:21:15;;;;;;;17.63;16.07;;;;;;;19.40;99.51;97696.34;6204227;28;20313;-43
2023/06/21 04:24:17;;;;;;;17.53;15.70;;;;;;;19.44;99.38;97702.75;6240011;28;20229;-43
2023/06/21 04:27:22;;;;;;;16.07;14.67;;;;;;;19.45;99.25;97705.13;6230141;28;20238;-45
2023/06/21 04:30:25;;;;;;;16.73;15.23;;;;;;;19.40;99.23;97696.34;6236962;28;20234;-44
2023/06/21 04:33:28;;;;;;;17.87;16.27;;;;;;;19.51;99.29;97708.56;6242333;28;20321;-45
2023/06/21 04:36:30;;;;;;;18.20;16.53;;;;;;;19.56;99.16;97708.47;6236389;28;20238;-43
2023/06/21 04:39:33;;;;;;;17.50;15.90;;;;;;;19.62;98.97;97711.91;6240455;28;20233;-45
2023/06/21 04:42:35;;;;;;;18.47;16.57;;;;;;;19.67;98.75;97718.03;6241771;28;20223;-44
2023/06/21 04:45:37;;;;;;;16.40;15.00;;;;;;;19.67;98.87;97711.81;6237004;28;20724;-46
2023/06/21 04:48:40;;;;;;;15.60;14.30;;;;;;;19.77;98.32;97723.22;6223362;28;20231;-44
2023/06/21 04:51:43;;;;;;;16.50;15.00;;;;;;;19.83;98.33;97727.44;6239320;28;20269;-44
2023/06/21 04:54:45;;;;;;;15.50;14.20;;;;;;;19.94;98.00;97738.03;6232760;28;20230;-45
2023/06/21 04:57:48;;;;;;;16.20;14.80;;;;;;;20.00;97.61;97744.94;6238828;28;20895;-46
2023/06/21 05:00:51;;;;;;;15.33;14.00;;;;;;;20.05;97.79;97745.66;6241410;28;20230;-44
2023/06/21 05:03:53;;;;;;;15.30;13.97;;;;;;;20.08;97.59;97730.72;6239334;28;20608;-46
2023/06/21 05:06:56;;;;;;;14.33;13.17;;;;;;;20.12;96.94;97729.00;6238418;28;20242;-46
2023/06/21 05:09:58;;;;;;;16.37;14.70;;;;;;;20.15;96.71;97730.31;6235744;28;20243;-45
2023/06/21 05:13:00;;;;;;;15.70;14.30;;;;;;;20.16;97.10;97735.44;6237563;28;20242;-46
2023/06/21 05:16:02;;;;;;;17.40;15.80;;;;;;;20.18;96.81;97730.50;6235756;28;20705;-48
2023/06/21 05:19:04;;;;;;;16.27;14.87;;;;;;;20.23;95.66;97724.19;6239267;28;20246;-44
2023/06/21 05:22:07;;;;;;;16.97;15.37;;;;;;;20.28;95.75;97730.28;6239809;28;20685;-44
2023/06/21 05:25:10;;;;;;;16.17;14.80;;;;;;;20.38;95.00;97733.88;6235981;28;20305;-45
2023/06/21 05:28:12;;;;;;;15.93;14.57;;;;;;;20.42;94.91;97743.78;6236493;28;20656;-44
2023/06/21 05:31:14;;;;;;;15.53;14.13;;;;;;;20.48;94.96;97745.31;6238826;28;20309;-44
2023/06/21 05:34:16;;;;;;;15.93;14.53;;;;;;;20.58;94.66;97746.97;6240695;28;20301;-45
2023/06/21 05:37:19;;;;;;;15.83;14.23;;;;;;;20.59;94.87;97732.34;6237893;28;20235;-44
2023/06/21 05:40:22;;;;;;;16.77;15.27;;;;;;;20.74;94.09;97756.38;6237932;28;20227;-44
2023/06/21 05:43:24;;;;;;;15.17;13.73;;;;;;;20.82;93.79;97752.13;6238931;28;20256;-44
2023/06/21 05:46:26;;;;;;;15.47;14.10;;;;;;;20.91;93.25;97758.41;6236924;28;20284;-44
2023/06/21 05:49:28;;;;;;;15.03;13.67;;;;;;;21.00;93.08;97761.19;6219825;28;20850;-45
2023/06/21 05:52:30;;;;;;;14.70;13.40;;;;;;;21.09;92.47;97767.47;6238815;28;20231;-45
2023/06/21 05:55:32;;;;;;;16.40;14.97;;;;;;;21.16;91.22;97772.47;6231279;28;20239;-45
2023/06/21 05:58:34;;;;;;;15.53;14.23;;;;;;;21.27;90.73;97773.81;6237265;28;20236;-44
2023/06/21 06:01:37;;;;;;;15.63;14.33;;;;;;;21.22;88.81;97744.13;6237886;28;20227;-47
2023/06/21 06:04:39;;;;;;;15.67;14.30;;;;;;;21.46;88.13;97768.22;6235945;28;20744;-44
2023/06/21 06:07:41;;;;;;;15.67;14.10;;;;;;;21.56;88.05;97768.75;6224401;28;20228;-45
2023/06/21 06:10:43;;;;;;;15.67;14.27;;;;;;;21.63;87.04;97768.31;6244229;28;20250;-47
2023/06/21 06:13:45;;;;;;;14.50;13.10;;;;;;;21.72;87.33;97777.28;6239634;28;20735;-45
2023/06/21 06:16:47;;;;;;;15.70;14.23;;;;;;;21.75;87.03;97762.31;6209954;28;20269;-45
2023/06/21 06:19:49;;;;;;;14.93;13.63;;;;;;;21.96;86.69;97776.91;6242826;28;20324;-45
2023/06/21 06:22:52;;;;;;;15.33;13.83;;;;;;;21.82;86.50;97741.78;6244205;28;20329;-44
2023/06/21 06:25:54;;;;;;;16.07;14.67;;;;;;;22.19;86.19;97788.50;6240574;28;20727;-46
2023/06/21 06:28:56;;;;;;;15.37;14.00;;;;;;;22.20;86.02;97790.09;6242702;28;20709;-45
2023/06/21 06:31:58;;;;;;;15.17;13.77;;;;;;;22.24;85.77;97795.72;6242605;28;20781;-45
2023/06/21 06:35:01;;;;;;;14.73;13.43;;;;;;;22.34;85.68;97790.78;6242210;28;20369;-45
2023/06/21 06:38:03;;;;;;;14.97;13.67;;;;;;;22.49;84.92;97791.47;6239135;28;20262;-48
2023/06/21 06:41:05;;;;;;;14.50;13.30;;;;;;;22.62;84.89;97793.25;6226106;28;20373;-46
2023/06/21 06:44:08;;;;;;;15.68;14.27;;;;;;;22.77;84.03;97798.22;6240669;28;20608;-46
2023/06/21 06:47:11;;;;;;;14.88;13.57;;;;;;;22.92;83.37;97788.81;6242360;28;20376;-45
2023/06/21 06:50:13;;;;;;;15.32;13.93;;;;;;;22.92;83.52;97781.47;6208962;28;20251;-46
2023/06/21 06:53:15;;;;;;;14.85;13.43;;;;;;;23.11;83.87;97802.09;6241622;28;20242;-47
2023/06/21 06:56:17;;;;;;;14.25;13.05;;;;;;;23.17;83.93;97811.69;6242415;28;20796;-45
2023/06/21 06:59:20;;;;;;;13.02;11.82;;;;;;;23.23;83.91;97817.75;6242781;28;20733;-44
2023/06/21 07:02:22;;;;;;;13.93;12.73;;;;;;;23.29;83.12;97819.97;6221542;28;20302;-46
2023/06/21 07:05:25;;;;;;;13.55;12.25;;;;;;;23.33;81.80;97820.13;6242722;28;20230;-45
2023/06/21 07:08:28;;;;;;;13.93;12.65;;;;;;;23.41;80.79;97822.84;6242669;28;20358;-45
2023/06/21 07:11:30;;;;;;;13.95;12.65;;;;;;;23.76;79.69;97841.84;6242488;28;20263;-45
2023/06/21 07:14:32;;;;;;;14.60;11.45;;;;;;;23.90;79.56;97849.81;6236253;28;20957;-45
2023/06/21 07:17:34;;;;;;;12.75;11.55;;;;;;;24.03;78.51;97853.44;6238364;28;20715;-44
2023/06/21 07:20:37;;;;;;;18.17;12.13;;;;;;;24.05;79.46;97840.34;6222398;28;20376;-45
2023/06/21 07:23:39;;;;;;;13.00;11.70;;;;;;;24.23;78.54;97857.38;6236004;28;20234;-45
2023/06/21 07:26:41;;;;;;;13.18;11.98;;;;;;;24.36;78.09;97861.84;6209465;28;20649;-46
2023/06/21 07:29:43;;;;;;;13.30;11.43;;;;;;;24.53;78.78;97863.66;6239663;28;20229;-45
2023/06/21 07:32:47;;;;;;;13.57;12.30;;;;;;;24.55;76.00;97845.88;6239851;28;20236;-46
2023/06/21 07:35:50;;;;;;;14.70;13.25;;;;;;;24.85;71.86;97862.22;6241780;28;20238;-45
2023/06/21 07:38:52;;;;;;;14.07;12.77;;;;;;;25.16;69.06;97875.50;6242490;28;20474;-45
2023/06/21 07:41:57;;;;;;;14.20;12.80;;;;;;;25.29;71.18;97868.97;6241557;28;20728;-47
2023/06/21 07:45:14;;;;;;;13.90;12.70;;;;;;;25.21;68.08;97848.03;6235767;28;20223;-45
2023/06/21 07:48:16;;;;;;;14.75;12.25;;;;;;;25.54;64.68;97866.38;6240719;28;20284;-46
2023/06/21 07:51:22;;;;;;;14.48;11.95;;;;;;;25.82;63.25;97875.59;6240390;28;20224;-46
2023/06/21 07:54:24;;;;;;;13.68;12.35;;;;;;;25.83;64.29;97869.00;6241051;28;20227;-46
2023/06/21 07:57:26;;;;;;;13.73;12.07;;;;;;;25.87;65.21;97871.84;6242818;28;20231;-45
2023/06/21 08:00:28;;;;;;;11.48;10.40;;;;;;;25.86;62.54;97872.97;6238171;28;20219;-46
2023/06/21 08:03:31;;;;;;;11.07;9.93;;;;;;;25.59;65.00;97853.31;6239686;28;20301;-45
2023/06/21 08:06:33;;;;;;;11.93;10.45;;;;;;;25.74;62.00;97874.50;6240262;28;20258;-46
2023/06/21 08:09:35;;;;;;;12.10;10.77;;;;;;;26.02;60.39;97884.06;6236911;28;20245;-46
2023/06/21 08:12:37;;;;;;;14.27;10.68;;;;;;;26.08;59.35;97860.84;6209399;28;20235;-47
2023/06/21 08:15:39;;;;;;;10.40;9.32;;;;;;;26.32;59.44;97885.47;6239422;28;20227;-45
2023/06/21 08:18:43;;;;;;;12.32;10.95;;;;;;;26.30;60.98;97887.72;6236344;28;20239;-45
2023/06/21 08:21:45;;;;;;;11.85;10.65;;;;;;;26.28;63.21;97889.22;6239962;28;20749;-47
2023/06/21 08:24:47;;;;;;;12.18;9.18;;;;;;;26.27;58.06;97882.97;6237933;28;20247;-46
2023/06/21 08:27:49;;;;;;;10.63;9.18;;;;;;;26.26;59.81;97878.66;6239518;28;20315;-46
2023/06/21 08:30:52;;;;;;;13.43;8.57;;;;;;;26.41;57.76;97879.91;6238167;28;20246;-46
2023/06/21 08:33:54;;;;;;;11.18;7.63;;;;;;;26.45;53.96;97878.91;6223764;28;20609;-45
2023/06/21 08:36:56;;;;;;;10.68;7.72;;;;;;;26.63;52.60;97870.47;6241683;28;20231;-44
2023/06/21 08:39:58;;;;;;;10.10;7.43;;;;;;;26.69;55.13;97874.56;6239961;28;20304;-47
2023/06/21 08:43:00;;;;;;;13.07;7.70;;;;;;;26.57;55.90;97871.84;6239905;28;20305;-47
2023/06/21 08:46:06;;;;;;;8.63;7.78;;;;;;;26.47;58.50;97875.84;6239626;28;20245;-46
2023/06/21 08:49:16;;;;;;;9.25;7.80;;;;;;;26.31;58.25;97878.41;6242223;28;20245;-46
2023/06/21 08:52:20;;;;;;;12.00;7.20;;;;;;;26.52;54.02;97883.81;6238694;28;20382;-46
2023/06/21 08:55:24;;;;;;;9.25;7.13;;;;;;;26.66;56.15;97883.47;6240834;28;20607;-45
2023/06/21 08:58:30;;;;;;;8.02;6.28;;;;;;;26.60;57.12;97879.34;6233265;28;20246;-46
2023/06/21 09:01:45;;;;;;;9.70;6.68;;;;;;;26.51;59.29;97881.41;6238969;28;20323;-46
2023/06/21 09:04:52;;;;;;;12.23;7.18;;;;;;;26.45;59.01;97884.38;6236567;28;20230;-45
2023/06/21 09:07:56;;;;;;;10.07;6.00;;;;;;;26.45;60.21;97886.28;6242438;28;20234;-45
2023/06/21 09:10:59;;;;;;;8.00;6.57;;;;;;;26.40;61.48;97879.13;6217206;28;20369;-46
2023/06/21 09:14:02;;;;;;;7.28;5.78;;;;;;;26.53;60.72;97884.59;6243558;28;20250;-47
2023/06/21 09:17:07;;;;;;;9.38;6.28;;;;;;;26.53;59.43;97888.13;6208254;28;20234;-46
2023/06/21 09:20:11;;;;;;;8.05;6.40;;;;;;;26.77;54.60;97889.25;6239010;28;20739;-45
2023/06/21 09:23:14;;;;;;;12.23;6.40;;;;;;;26.73;52.95;97856.34;6221696;28;20224;-45
2023/06/21 09:26:16;;;;;;;9.07;6.25;;;;;;;27.05;54.93;97890.16;6235277;28;20313;-47
2023/06/21 09:29:19;;;;;;;9.77;5.97;;;;;;;27.03;56.07;97889.69;6239486;28;20823;-46
2023/06/21 09:32:21;;;;;;;11.82;7.18;;;;;;;27.04;55.25;97888.53;6218928;28;20760;-47
2023/06/21 09:35:24;;;;;;;11.32;6.68;;;;;;;27.10;55.66;97884.47;6237631;28;20240;-45
2023/06/21 09:38:32;;;;;;;11.85;5.90;;;;;;;27.33;49.30;97892.16;6236312;28;20222;-45
2023/06/21 09:41:35;;;;;;;12.27;5.90;;;;;;;27.56;47.55;97887.75;6200785;28;20328;-46
2023/06/21 09:44:40;;;;;;;11.73;6.57;;;;;;;27.62;49.24;97882.81;6202071;28;20807;-46
2023/06/21 09:47:42;;;;;;;11.18;6.38;;;;;;;27.48;57.07;97872.25;6201845;28;20239;-47
2023/06/21 09:50:47;;;;;;;8.55;5.80;;;;;;;27.44;55.68;97869.44;6241923;28;20255;-47
2023/06/21 09:53:52;;;;;;;10.57;5.80;;;;;;;27.58;55.95;97885.44;6239173;28;20908;-45
2023/06/21 09:56:54;;;;;;;8.73;6.13;;;;;;;27.61;55.63;97883.97;6236868;28;20335;-46
2023/06/21 09:59:59;;;;;;;7.35;5.72;;;;;;;27.49;56.25;97860.19;6238968;28;20242;-46
2023/06/21 10:03:03;;;;;;;10.77;6.68;;;;;;;27.69;51.93;97872.06;6241735;28;20350;-44
2023/06/21 10:06:06;;;;;;;7.60;6.30;;;;;;;27.84;48.81;97865.06;6239284;28;20199;-46
2023/06/21 10:09:09;;;;;;;9.25;6.50;;;;;;;28.13;47.39;97883.00;6238356;28;20230;-44
2023/06/21 10:12:11;;;;;;;10.98;6.10;;;;;;;28.09;46.40;97887.63;6235970;28;20219;-46
2023/06/21 10:15:14;;;;;;;14.43;6.45;;;;;;;28.14;48.71;97885.41;6239311;28;20704;-48
2023/06/21 10:18:16;;;;;;;7.68;5.32;;;;;;;28.12;51.10;97859.50;6236145;28;20215;-45
2023/06/21 10:21:21;;;;;;;9.25;6.10;;;;;;;28.20;49.73;97880.47;6237697;28;20216;-49
2023/06/21 10:24:26;;;;;;;9.13;5.72;;;;;;;28.19;52.68;97876.94;6234270;28;20227;-45
2023/06/21 10:27:30;;;;;;;7.13;5.75;;;;;;;28.18;53.39;97872.63;6234378;28;20242;-46
2023/06/21 10:30:39;;;;;;;9.88;6.03;;;;;;;28.20;53.42;97869.50;6237238;28;20239;-46
2023/06/21 10:33:45;;;;;;;11.23;7.32;;;;;;;28.33;47.18;97872.97;6234170;28;20235;-45
2023/06/21 10:36:54;;;;;;;8.32;6.43;;;;;;;28.43;45.85;97865.03;6238557;28;20882;-46
2023/06/21 10:40:03;;;;;;;11.57;6.50;;;;;;;28.62;44.52;97861.56;6201417;28;20885;-46
2023/06/21 10:43:13;;;;;;;8.90;6.28;;;;;;;28.73;46.45;97862.63;6238257;28;20238;-46
2023/06/21 10:46:15;;;;;;;9.75;5.55;;;;;;;28.68;50.55;97867.56;6237143;28;20243;-45
2023/06/21 10:49:19;;;;;;;7.88;5.45;;;;;;;28.49;51.59;97841.69;6232380;28;20717;-45
2023/06/21 10:52:21;;;;;;;12.07;6.13;;;;;;;28.64;53.14;97866.69;6237359;28;20242;-45
2023/06/21 10:55:23;;;;;;;7.15;4.57;;;;;;;28.16;46.55;97806.41;6241962;28;20235;-46
2023/06/21 10:58:26;;;;;;;7.50;4.53;;;;;;;28.76;46.87;97866.56;6242074;28;20242;-45
2023/06/21 11:01:28;;;;;;;12.27;5.15;;;;;;;28.94;40.15;97873.28;6237208;28;20227;-47
2023/06/21 11:04:30;;;;;;;9.45;4.95;;;;;;;28.81;38.06;97822.41;6240120;28;20234;-47
2023/06/21 11:07:57;;;;;;;6.22;4.03;;;;;;;29.19;40.44;97875.78;6241819;28;20240;-44
2023/06/21 11:10:59;;;;;;;7.72;4.80;;;;;;;29.33;39.46;97875.28;6211790;28;20609;-45
2023/06/21 11:14:03;;;;;;;10.13;4.88;;;;;;;29.46;40.65;97880.28;6242550;28;20253;-45
2023/06/21 11:17:09;;;;;;;6.95;5.00;;;;;;;29.55;39.40;97883.63;6238585;28;20254;-45
2023/06/21 11:20:22;;;;;;;6.80;4.75;;;;;;;29.51;42.46;97879.22;6237842;28;20771;-45
2023/06/21 11:23:25;;;;;;;8.07;4.07;;;;;;;29.29;46.28;97864.22;6241415;28;20228;-46
2023/06/21 11:26:57;;;;;;;8.65;4.90;;;;;;;29.29;49.07;97883.44;6242037;28;20228;-46
2023/06/21 11:30:09;;;;;;;16.38;5.40;;;;;;;29.29;42.40;97872.47;6248691;28;20230;-47
2023/06/21 11:33:22;;;;;;;6.43;4.07;;;;;;;29.42;45.78;97875.88;6234230;28;20322;-45
2023/06/21 11:36:29;;;;;;;11.48;4.68;;;;;;;29.59;40.43;97872.72;6237251;28;20235;-46
2023/06/21 11:39:31;;;;;;;7.85;4.03;;;;;;;29.83;37.56;97874.34;6241170;28;20237;-45
2023/06/21 11:42:43;;;;;;;9.70;4.13;;;;;;;29.88;40.33;97868.56;6240284;28;20239;-45
2023/06/21 11:45:56;;;;;;;9.00;4.55;;;;;;;29.85;37.93;97865.75;6221390;28;20320;-49
2023/06/21 11:48:59;;;;;;;7.15;4.57;;;;;;;29.78;39.68;97853.47;6238335;28;20242;-45
2023/06/21 11:52:05;;;;;;;9.35;4.43;;;;;;;29.97;41.01;97869.13;6241735;28;20718;-46
2023/06/21 11:55:14;;;;;;;12.25;4.47;;;;;;;29.90;41.53;97873.69;6240376;28;20269;-46
2023/06/21 11:58:16;;;;;;;8.25;4.30;;;;;;;29.95;41.50;97868.69;6240568;28;20711;-46
2023/06/21 12:01:18;;;;;;;9.20;4.32;;;;;;;29.64;36.76;97835.94;6233850;28;20253;-47
2023/06/21 12:04:25;;;;;;;9.20;4.28;;;;;;;29.93;41.50;97860.00;6239821;28;20222;-47
2023/06/21 12:07:28;;;;;;;7.93;4.65;;;;;;;29.64;38.98;97811.22;6237956;28;21338;-45
2023/06/21 12:10:31;;;;;;;11.38;4.43;;;;;;;29.80;39.77;97853.09;6241373;28;20223;-46
2023/06/21 12:13:35;;;;;;;9.00;5.00;;;;;;;29.80;40.92;97858.59;6223295;28;20592;-45
2023/06/21 12:16:37;;;;;;;8.43;4.45;;;;;;;29.80;43.05;97861.34;6238716;28;20715;-45
2023/06/21 12:19:39;;;;;;;12.02;4.32;;;;;;;29.79;40.74;97857.00;6240485;28;20241;-50
2023/06/21 12:22:41;;;;;;;11.75;4.80;;;;;;;29.68;41.87;97861.50;6240530;28;20244;-46
2023/06/21 12:26:01;;;;;;;7.00;4.28;;;;;;;29.74;38.58;97865.53;6235468;28;20740;-47
2023/06/21 12:29:05;;;;;;;10.80;4.38;;;;;;;30.04;40.40;97862.94;6236465;28;20232;-45
2023/06/21 12:32:11;;;;;;;9.88;4.28;;;;;;;30.18;39.46;97876.97;6240471;28;20242;-48
2023/06/21 12:35:17;;;;;;;9.73;4.57;;;;;;;30.40;36.30;97872.66;6236390;28;20607;-46
2023/06/21 12:38:20;;;;;;;6.20;4.15;;;;;;;30.66;34.49;97860.06;6239287;28;20249;-46
2023/06/21 12:41:25;;;;;;;7.38;4.03;;;;;;;30.84;35.54;97858.41;6237218;28;20224;-48
2023/06/21 12:44:30;;;;;;;10.32;3.95;;;;;;;30.82;37.15;97860.72;6241303;28;20235;-46
2023/06/21 12:47:33;;;;;;;7.60;3.90;;;;;;;30.79;39.79;97872.50;6239216;28;20243;-45
2023/06/21 12:50:35;;;;;;;8.85;3.50;;;;;;;30.79;37.39;97856.00;6239596;28;20361;-47
2023/06/21 12:53:41;;;;;;;8.10;4.15;;;;;;;30.58;43.09;97859.16;6239215;28;20238;-47
2023/06/21 12:56:58;;;;;;;10.85;3.75;;;;;;;30.40;45.50;97866.34;6203375;28;20779;-46
2023/06/21 13:00:00;;;;;;;7.35;3.80;;;;;;;30.17;44.62;97871.84;6239709;28;20658;-47
2023/06/21 13:03:03;;;;;;;9.23;3.92;;;;;;;29.91;44.28;97870.59;6220217;28;20357;-46
2023/06/21 13:06:05;;;;;;;8.25;3.90;;;;;;;29.89;41.87;97877.59;6237889;28;20212;-45
2023/06/21 13:09:09;;;;;;;6.68;3.85;;;;;;;29.88;42.10;97882.28;6238419;28;20720;-47
2023/06/21 13:12:12;;;;;;;10.80;4.25;;;;;;;29.93;40.73;97871.00;6236123;28;20585;-49
2023/06/21 13:15:14;;;;;;;9.45;4.45;;;;;;;29.81;44.79;97862.94;6237274;28;20215;-50
2023/06/21 13:18:18;;;;;;;9.45;4.10;;;;;;;29.64;49.50;97874.38;6238018;28;20724;-48
2023/06/21 13:21:24;;;;;;;8.57;4.47;;;;;;;29.55;49.38;97871.84;6241253;28;20703;-45
2023/06/21 13:24:27;;;;;;;8.50;4.70;;;;;;;29.46;48.59;97871.25;6237954;28;20236;-46
2023/06/21 13:27:29;;;;;;;11.85;5.05;;;;;;;29.52;47.66;97867.84;6217673;28;20281;-49
2023/06/21 13:30:31;;;;;;;8.20;4.40;;;;;;;29.47;48.16;97864.59;6239314;28;20273;-47
2023/06/21 13:33:34;;;;;;;8.35;4.63;;;;;;;29.45;48.32;97859.47;6239278;28;20242;-46
2023/06/21 13:36:36;;;;;;;9.25;4.57;;;;;;;29.47;47.35;97865.41;6239618;28;20373;-46
2023/06/21 13:39:38;;;;;;;8.52;4.53;;;;;;;29.51;46.74;97851.75;6208006;28;20728;-45
2023/06/21 13:42:41;;;;;;;11.00;5.60;;;;;;;29.61;46.20;97829.22;6241236;28;20613;-46
2023/06/21 13:45:43;;;;;;;8.20;4.70;;;;;;;29.75;47.91;97828.69;6234664;28;20708;-48
2023/06/21 13:48:45;;;;;;;9.20;5.43;;;;;;;29.75;49.34;97818.50;6238608;28;20242;-45
2023/06/21 13:51:48;;;;;;;10.70;4.82;;;;;;;29.71;51.86;97809.41;6237864;28;20238;-49
2023/06/21 13:54:50;;;;;;;10.15;5.40;;;;;;;29.67;52.31;97810.50;6239011;28;20308;-48
2023/06/21 13:57:52;;;;;;;11.50;5.93;;;;;;;29.58;48.92;97807.19;6240365;28;20320;-47
2023/06/21 14:00:55;;;;;;;9.85;5.60;;;;;;;29.53;49.35;97806.28;6237370;28;20342;-46
2023/06/21 14:03:57;;;;;;;9.60;5.30;;;;;;;29.44;50.13;97800.22;6239297;28;20338;-47
2023/06/21 14:06:59;;;;;;;10.40;5.43;;;;;;;29.34;51.13;97800.81;6236289;28;20234;-46
2023/06/21 14:10:02;;;;;;;12.68;5.88;;;;;;;29.24;51.51;97790.44;6236078;28;20228;-46